sensor_id;sensor_type;location;lat;lon;timestamp;P1;durP1;ratioP1;P2;durP2;ratioP2
40284;SDS011;25997;50.214;19.354;2022-07-26T00:00:44;4.07;;;3.28;;
40284;SDS011;25997;50.214;19.354;2022-07-26T00:07:47;6.47;;;3.63;;
40284;SDS011;25997;50.214;19.354;2022-07-26T00:10:50;4.18;;;3.53;;
40284;SDS011;25997;50.214;19.354;2022-07-26T00:13:53;5.00;;;3.67;;
40284;SDS011;25997;50.214;19.354;2022-07-26T00:16:56;4.65;;;3.70;;
40284;SDS011;25997;50.214;19.354;2022-07-26T00:19:58;5.07;;;3.72;;
40284;SDS011;25997;50.214;19.354;2022-07-26T00:23:02;6.05;;;3.63;;
40284;SDS011;25997;50.214;19.354;2022-07-26T00:26:05;6.72;;;3.90;;
40284;SDS011;25997;50.214;19.354;2022-07-26T00:29:08;5.60;;;4.05;;
40284;SDS011;25997;50.214;19.354;2022-07-26T00:32:11;4.88;;;3.80;;
40284;SDS011;25997;50.214;19.354;2022-07-26T00:35:13;5.65;;;3.95;;
40284;SDS011;25997;50.214;19.354;2022-07-26T00:38:17;6.95;;;3.72;;
40284;SDS011;25997;50.214;19.354;2022-07-26T00:41:20;8.18;;;3.92;;
40284;SDS011;25997;50.214;19.354;2022-07-26T00:44:23;6.75;;;4.15;;
40284;SDS011;25997;50.214;19.354;2022-07-26T00:47:25;4.60;;;3.47;;
40284;SDS011;25997;50.214;19.354;2022-07-26T00:50:28;5.78;;;4.28;;
40284;SDS011;25997;50.214;19.354;2022-07-26T00:53:32;4.75;;;4.07;;
40284;SDS011;25997;50.214;19.354;2022-07-26T00:56:34;4.97;;;4.47;;
40284;SDS011;25997;50.214;19.354;2022-07-26T00:59:38;5.63;;;4.03;;
40284;SDS011;25997;50.214;19.354;2022-07-26T01:02:41;5.15;;;3.92;;
40284;SDS011;25997;50.214;19.354;2022-07-26T01:05:44;5.18;;;4.18;;
40284;SDS011;25997;50.214;19.354;2022-07-26T01:08:49;5.43;;;4.60;;
40284;SDS011;25997;50.214;19.354;2022-07-26T01:11:52;7.30;;;4.15;;
40284;SDS011;25997;50.214;19.354;2022-07-26T01:14:55;5.07;;;3.70;;
40284;SDS011;25997;50.214;19.354;2022-07-26T01:17:57;5.45;;;4.38;;
40284;SDS011;25997;50.214;19.354;2022-07-26T01:21:00;6.22;;;4.38;;
40284;SDS011;25997;50.214;19.354;2022-07-26T01:24:06;4.75;;;4.00;;
40284;SDS011;25997;50.214;19.354;2022-07-26T01:27:08;5.75;;;4.35;;
40284;SDS011;25997;50.214;19.354;2022-07-26T01:30:11;6.85;;;4.47;;
40284;SDS011;25997;50.214;19.354;2022-07-26T01:33:14;5.97;;;4.85;;
40284;SDS011;25997;50.214;19.354;2022-07-26T01:36:17;7.07;;;4.93;;
40284;SDS011;25997;50.214;19.354;2022-07-26T01:39:21;6.90;;;4.60;;
40284;SDS011;25997;50.214;19.354;2022-07-26T01:42:24;7.72;;;4.70;;
40284;SDS011;25997;50.214;19.354;2022-07-26T01:45:27;6.07;;;3.90;;
40284;SDS011;25997;50.214;19.354;2022-07-26T01:48:30;5.47;;;4.35;;
40284;SDS011;25997;50.214;19.354;2022-07-26T01:51:32;4.95;;;4.45;;
40284;SDS011;25997;50.214;19.354;2022-07-26T01:54:37;6.55;;;3.83;;
40284;SDS011;25997;50.214;19.354;2022-07-26T01:57:39;6.90;;;4.10;;
40284;SDS011;25997;50.214;19.354;2022-07-26T02:00:45;7.13;;;5.10;;
40284;SDS011;25997;50.214;19.354;2022-07-26T02:03:48;4.90;;;4.35;;
40284;SDS011;25997;50.214;19.354;2022-07-26T02:06:50;6.28;;;5.10;;
40284;SDS011;25997;50.214;19.354;2022-07-26T02:09:54;8.63;;;5.57;;
40284;SDS011;25997;50.214;19.354;2022-07-26T02:12:57;28.83;;;6.32;;
40284;SDS011;25997;50.214;19.354;2022-07-26T02:16:00;6.18;;;4.85;;
40284;SDS011;25997;50.214;19.354;2022-07-26T02:19:03;6.80;;;4.60;;
40284;SDS011;25997;50.214;19.354;2022-07-26T02:22:06;6.20;;;4.68;;
40284;SDS011;25997;50.214;19.354;2022-07-26T02:25:10;7.50;;;4.88;;
40284;SDS011;25997;50.214;19.354;2022-07-26T02:28:13;6.53;;;4.78;;
40284;SDS011;25997;50.214;19.354;2022-07-26T02:31:15;6.15;;;4.57;;
40284;SDS011;25997;50.214;19.354;2022-07-26T02:34:18;5.75;;;4.65;;
40284;SDS011;25997;50.214;19.354;2022-07-26T02:37:21;7.22;;;5.00;;
40284;SDS011;25997;50.214;19.354;2022-07-26T02:40:25;5.55;;;4.45;;
40284;SDS011;25997;50.214;19.354;2022-07-26T02:43:28;6.22;;;4.53;;
40284;SDS011;25997;50.214;19.354;2022-07-26T02:46:31;5.85;;;4.68;;
40284;SDS011;25997;50.214;19.354;2022-07-26T02:49:34;5.05;;;4.55;;
40284;SDS011;25997;50.214;19.354;2022-07-26T02:52:38;5.70;;;5.03;;
40284;SDS011;25997;50.214;19.354;2022-07-26T02:55:42;6.18;;;4.85;;
40284;SDS011;25997;50.214;19.354;2022-07-26T02:58:45;6.03;;;4.93;;
40284;SDS011;25997;50.214;19.354;2022-07-26T03:01:48;7.82;;;4.93;;
40284;SDS011;25997;50.214;19.354;2022-07-26T03:04:50;6.40;;;4.93;;
40284;SDS011;25997;50.214;19.354;2022-07-26T03:07:53;7.32;;;5.40;;
40284;SDS011;25997;50.214;19.354;2022-07-26T03:10:57;7.20;;;5.05;;
40284;SDS011;25997;50.214;19.354;2022-07-26T03:14:00;7.72;;;5.50;;
40284;SDS011;25997;50.214;19.354;2022-07-26T03:17:03;6.38;;;5.20;;
40284;SDS011;25997;50.214;19.354;2022-07-26T03:20:06;7.60;;;5.05;;
40284;SDS011;25997;50.214;19.354;2022-07-26T03:23:09;8.35;;;4.78;;
40284;SDS011;25997;50.214;19.354;2022-07-26T03:26:13;5.93;;;5.32;;
40284;SDS011;25997;50.214;19.354;2022-07-26T03:29:16;8.63;;;5.50;;
40284;SDS011;25997;50.214;19.354;2022-07-26T03:32:19;7.82;;;4.97;;
40284;SDS011;25997;50.214;19.354;2022-07-26T03:35:21;7.78;;;5.82;;
40284;SDS011;25997;50.214;19.354;2022-07-26T03:38:25;6.85;;;5.97;;
40284;SDS011;25997;50.214;19.354;2022-07-26T03:41:29;7.40;;;5.85;;
40284;SDS011;25997;50.214;19.354;2022-07-26T03:44:32;9.30;;;5.95;;
40284;SDS011;25997;50.214;19.354;2022-07-26T03:47:34;6.47;;;5.40;;
40284;SDS011;25997;50.214;19.354;2022-07-26T03:50:37;7.75;;;6.00;;
40284;SDS011;25997;50.214;19.354;2022-07-26T03:53:40;5.55;;;5.05;;
40284;SDS011;25997;50.214;19.354;2022-07-26T03:56:44;8.07;;;6.25;;
40284;SDS011;25997;50.214;19.354;2022-07-26T03:59:46;6.60;;;5.57;;
40284;SDS011;25997;50.214;19.354;2022-07-26T04:02:49;5.82;;;5.10;;
40284;SDS011;25997;50.214;19.354;2022-07-26T04:05:51;7.00;;;6.30;;
40284;SDS011;25997;50.214;19.354;2022-07-26T04:08:54;7.57;;;5.53;;
40284;SDS011;25997;50.214;19.354;2022-07-26T04:11:58;8.23;;;5.35;;
40284;SDS011;25997;50.214;19.354;2022-07-26T04:15:00;6.07;;;5.57;;
40284;SDS011;25997;50.214;19.354;2022-07-26T04:18:03;8.45;;;5.95;;
40284;SDS011;25997;50.214;19.354;2022-07-26T04:21:05;14.63;;;5.95;;
40284;SDS011;25997;50.214;19.354;2022-07-26T04:24:08;7.72;;;5.40;;
40284;SDS011;25997;50.214;19.354;2022-07-26T04:27:12;6.18;;;5.55;;
40284;SDS011;25997;50.214;19.354;2022-07-26T04:30:15;8.07;;;5.70;;
40284;SDS011;25997;50.214;19.354;2022-07-26T04:33:18;6.65;;;5.95;;
40284;SDS011;25997;50.214;19.354;2022-07-26T04:36:21;7.45;;;6.00;;
40284;SDS011;25997;50.214;19.354;2022-07-26T04:39:24;7.65;;;5.88;;
40284;SDS011;25997;50.214;19.354;2022-07-26T04:42:28;6.47;;;5.82;;
40284;SDS011;25997;50.214;19.354;2022-07-26T04:45:30;9.80;;;6.10;;
40284;SDS011;25997;50.214;19.354;2022-07-26T04:48:33;6.75;;;5.63;;
40284;SDS011;25997;50.214;19.354;2022-07-26T04:51:37;7.82;;;5.95;;
40284;SDS011;25997;50.214;19.354;2022-07-26T04:54:40;7.07;;;5.95;;
40284;SDS011;25997;50.214;19.354;2022-07-26T04:57:44;6.93;;;6.22;;
40284;SDS011;25997;50.214;19.354;2022-07-26T05:00:47;8.38;;;6.80;;
40284;SDS011;25997;50.214;19.354;2022-07-26T05:03:50;7.47;;;6.30;;
40284;SDS011;25997;50.214;19.354;2022-07-26T05:06:52;7.40;;;6.00;;
40284;SDS011;25997;50.214;19.354;2022-07-26T05:09:56;7.75;;;6.65;;
40284;SDS011;25997;50.214;19.354;2022-07-26T05:13:00;11.02;;;5.97;;
40284;SDS011;25997;50.214;19.354;2022-07-26T05:16:04;8.90;;;6.47;;
40284;SDS011;25997;50.214;19.354;2022-07-26T05:19:07;8.18;;;6.80;;
40284;SDS011;25997;50.214;19.354;2022-07-26T05:22:10;7.53;;;6.82;;
40284;SDS011;25997;50.214;19.354;2022-07-26T05:25:12;8.05;;;5.90;;
40284;SDS011;25997;50.214;19.354;2022-07-26T05:28:16;7.00;;;6.28;;
40284;SDS011;25997;50.214;19.354;2022-07-26T05:31:19;8.23;;;7.20;;
40284;SDS011;25997;50.214;19.354;2022-07-26T05:34:21;12.35;;;9.18;;
40284;SDS011;25997;50.214;19.354;2022-07-26T05:37:24;8.35;;;7.28;;
40284;SDS011;25997;50.214;19.354;2022-07-26T05:40:27;10.10;;;7.70;;
40284;SDS011;25997;50.214;19.354;2022-07-26T05:43:31;9.18;;;6.80;;
40284;SDS011;25997;50.214;19.354;2022-07-26T05:46:34;8.18;;;6.68;;
40284;SDS011;25997;50.214;19.354;2022-07-26T05:49:36;6.80;;;5.85;;
40284;SDS011;25997;50.214;19.354;2022-07-26T05:52:39;10.05;;;6.68;;
40284;SDS011;25997;50.214;19.354;2022-07-26T05:55:42;8.75;;;7.20;;
40284;SDS011;25997;50.214;19.354;2022-07-26T05:58:46;8.10;;;6.70;;
40284;SDS011;25997;50.214;19.354;2022-07-26T06:01:48;7.72;;;6.93;;
40284;SDS011;25997;50.214;19.354;2022-07-26T06:04:51;8.75;;;7.07;;
40284;SDS011;25997;50.214;19.354;2022-07-26T06:07:53;10.18;;;7.35;;
40284;SDS011;25997;50.214;19.354;2022-07-26T06:10:56;10.13;;;7.80;;
40284;SDS011;25997;50.214;19.354;2022-07-26T06:14:00;15.43;;;7.38;;
40284;SDS011;25997;50.214;19.354;2022-07-26T06:17:03;9.05;;;7.85;;
40284;SDS011;25997;50.214;19.354;2022-07-26T06:20:06;10.52;;;7.65;;
40284;SDS011;25997;50.214;19.354;2022-07-26T06:23:09;17.30;;;8.63;;
40284;SDS011;25997;50.214;19.354;2022-07-26T06:26:12;14.32;;;8.57;;
40284;SDS011;25997;50.214;19.354;2022-07-26T06:29:16;12.73;;;9.02;;
40284;SDS011;25997;50.214;19.354;2022-07-26T06:32:18;11.05;;;9.20;;
40284;SDS011;25997;50.214;19.354;2022-07-26T06:35:21;11.18;;;8.85;;
40284;SDS011;25997;50.214;19.354;2022-07-26T06:38:24;12.25;;;8.98;;
40284;SDS011;25997;50.214;19.354;2022-07-26T06:41:27;14.27;;;9.43;;
40284;SDS011;25997;50.214;19.354;2022-07-26T06:44:31;11.25;;;9.10;;
40284;SDS011;25997;50.214;19.354;2022-07-26T06:47:34;10.45;;;9.35;;
40284;SDS011;25997;50.214;19.354;2022-07-26T06:50:36;11.55;;;8.73;;
40284;SDS011;25997;50.214;19.354;2022-07-26T06:53:39;13.20;;;10.15;;
40284;SDS011;25997;50.214;19.354;2022-07-26T06:56:42;13.45;;;9.35;;
40284;SDS011;25997;50.214;19.354;2022-07-26T06:59:46;11.48;;;10.38;;
40284;SDS011;25997;50.214;19.354;2022-07-26T07:02:49;14.73;;;10.15;;
40284;SDS011;25997;50.214;19.354;2022-07-26T07:05:52;14.18;;;11.38;;
40284;SDS011;25997;50.214;19.354;2022-07-26T07:08:54;18.27;;;11.85;;
40284;SDS011;25997;50.214;19.354;2022-07-26T07:11:57;17.70;;;13.60;;
40284;SDS011;25997;50.214;19.354;2022-07-26T07:15:03;13.85;;;12.00;;
40284;SDS011;25997;50.214;19.354;2022-07-26T07:18:06;16.42;;;14.52;;
40284;SDS011;25997;50.214;19.354;2022-07-26T07:21:08;17.17;;;14.18;;
40284;SDS011;25997;50.214;19.354;2022-07-26T07:24:11;17.65;;;14.48;;
40284;SDS011;25997;50.214;19.354;2022-07-26T07:27:13;17.38;;;15.43;;
40284;SDS011;25997;50.214;19.354;2022-07-26T07:30:17;14.18;;;12.30;;
40284;SDS011;25997;50.214;19.354;2022-07-26T07:33:20;17.00;;;13.85;;
40284;SDS011;25997;50.214;19.354;2022-07-26T07:36:23;14.45;;;11.30;;
40284;SDS011;25997;50.214;19.354;2022-07-26T07:39:25;18.45;;;12.43;;
40284;SDS011;25997;50.214;19.354;2022-07-26T07:42:28;17.02;;;13.50;;
40284;SDS011;25997;50.214;19.354;2022-07-26T07:45:32;14.90;;;12.43;;
40284;SDS011;25997;50.214;19.354;2022-07-26T07:48:35;18.10;;;15.65;;
40284;SDS011;25997;50.214;19.354;2022-07-26T07:51:40;20.17;;;16.27;;
40284;SDS011;25997;50.214;19.354;2022-07-26T07:54:43;18.83;;;16.33;;
40284;SDS011;25997;50.214;19.354;2022-07-26T07:57:45;19.58;;;17.23;;
40284;SDS011;25997;50.214;19.354;2022-07-26T08:00:49;22.73;;;19.95;;
40284;SDS011;25997;50.214;19.354;2022-07-26T08:03:52;20.08;;;18.10;;
40284;SDS011;25997;50.214;19.354;2022-07-26T08:06:55;21.33;;;19.10;;
40284;SDS011;25997;50.214;19.354;2022-07-26T08:09:57;21.50;;;19.55;;
40284;SDS011;25997;50.214;19.354;2022-07-26T08:13:00;21.13;;;19.08;;
40284;SDS011;25997;50.214;19.354;2022-07-26T08:16:04;22.58;;;20.35;;
40284;SDS011;25997;50.214;19.354;2022-07-26T08:19:07;20.20;;;17.75;;
40284;SDS011;25997;50.214;19.354;2022-07-26T08:22:09;19.67;;;17.85;;
40284;SDS011;25997;50.214;19.354;2022-07-26T08:25:12;18.27;;;16.65;;
40284;SDS011;25997;50.214;19.354;2022-07-26T08:28:15;16.95;;;15.45;;
40284;SDS011;25997;50.214;19.354;2022-07-26T08:31:19;18.38;;;15.38;;
40284;SDS011;25997;50.214;19.354;2022-07-26T08:34:22;16.00;;;14.40;;
40284;SDS011;25997;50.214;19.354;2022-07-26T08:37:24;15.00;;;13.70;;
40284;SDS011;25997;50.214;19.354;2022-07-26T08:40:27;15.13;;;13.60;;
40284;SDS011;25997;50.214;19.354;2022-07-26T08:43:30;16.23;;;14.13;;
40284;SDS011;25997;50.214;19.354;2022-07-26T08:46:35;15.30;;;13.88;;
40284;SDS011;25997;50.214;19.354;2022-07-26T08:52:45;14.75;;;13.30;;
40284;SDS011;25997;50.214;19.354;2022-07-26T08:55:48;13.45;;;12.13;;
40284;SDS011;25997;50.214;19.354;2022-07-26T08:58:50;11.95;;;10.85;;
40284;SDS011;25997;50.214;19.354;2022-07-26T09:01:55;10.95;;;9.95;;
40284;SDS011;25997;50.214;19.354;2022-07-26T09:05:02;12.65;;;11.57;;
40284;SDS011;25997;50.214;19.354;2022-07-26T09:11:25;13.05;;;11.88;;
40284;SDS011;25997;50.214;19.354;2022-07-26T09:14:35;12.98;;;11.77;;
40284;SDS011;25997;50.214;19.354;2022-07-26T09:17:41;15.77;;;14.27;;
40284;SDS011;25997;50.214;19.354;2022-07-26T09:20:45;14.77;;;13.38;;
40284;SDS011;25997;50.214;19.354;2022-07-26T09:23:48;14.02;;;12.63;;
40284;SDS011;25997;50.214;19.354;2022-07-26T09:26:54;16.13;;;14.73;;
40284;SDS011;25997;50.214;19.354;2022-07-26T09:30:03;39.03;;;34.95;;
40284;SDS011;25997;50.214;19.354;2022-07-26T09:33:09;19.25;;;17.45;;
40284;SDS011;25997;50.214;19.354;2022-07-26T09:36:12;31.63;;;28.77;;
40284;SDS011;25997;50.214;19.354;2022-07-26T09:39:14;23.65;;;21.65;;
40284;SDS011;25997;50.214;19.354;2022-07-26T09:42:17;21.17;;;19.27;;
40284;SDS011;25997;50.214;19.354;2022-07-26T09:45:19;24.10;;;22.05;;
40284;SDS011;25997;50.214;19.354;2022-07-26T09:48:26;23.17;;;21.20;;
40284;SDS011;25997;50.214;19.354;2022-07-26T09:51:34;22.10;;;20.15;;
40284;SDS011;25997;50.214;19.354;2022-07-26T09:54:40;21.15;;;19.40;;
40284;SDS011;25997;50.214;19.354;2022-07-26T09:57:45;24.45;;;22.30;;
40284;SDS011;25997;50.214;19.354;2022-07-26T10:00:48;22.48;;;20.23;;
40284;SDS011;25997;50.214;19.354;2022-07-26T10:03:53;24.50;;;22.38;;
40284;SDS011;25997;50.214;19.354;2022-07-26T10:06:55;22.73;;;20.52;;
40284;SDS011;25997;50.214;19.354;2022-07-26T10:09:59;21.88;;;19.98;;
40284;SDS011;25997;50.214;19.354;2022-07-26T10:13:05;21.05;;;19.25;;
40284;SDS011;25997;50.214;19.354;2022-07-26T10:16:14;17.92;;;16.52;;
40284;SDS011;25997;50.214;19.354;2022-07-26T10:19:38;16.80;;;15.27;;
40284;SDS011;25997;50.214;19.354;2022-07-26T10:22:42;14.18;;;12.98;;
40284;SDS011;25997;50.214;19.354;2022-07-26T10:25:46;14.73;;;13.43;;
40284;SDS011;25997;50.214;19.354;2022-07-26T10:28:49;13.43;;;12.05;;
40284;SDS011;25997;50.214;19.354;2022-07-26T10:35:29;13.25;;;12.15;;
40284;SDS011;25997;50.214;19.354;2022-07-26T10:38:33;12.32;;;10.88;;
40284;SDS011;25997;50.214;19.354;2022-07-26T10:41:36;12.10;;;10.88;;
40284;SDS011;25997;50.214;19.354;2022-07-26T10:44:42;12.60;;;11.40;;
40284;SDS011;25997;50.214;19.354;2022-07-26T10:51:24;15.32;;;13.98;;
40284;SDS011;25997;50.214;19.354;2022-07-26T10:54:27;18.63;;;16.80;;
40284;SDS011;25997;50.214;19.354;2022-07-26T10:57:31;16.85;;;15.25;;
40284;SDS011;25997;50.214;19.354;2022-07-26T11:00:34;16.52;;;15.02;;
40284;SDS011;25997;50.214;19.354;2022-07-26T11:03:37;15.43;;;14.02;;
40284;SDS011;25997;50.214;19.354;2022-07-26T11:06:42;16.10;;;14.57;;
40284;SDS011;25997;50.214;19.354;2022-07-26T11:09:46;13.45;;;12.30;;
40284;SDS011;25997;50.214;19.354;2022-07-26T11:12:56;13.13;;;12.02;;
40284;SDS011;25997;50.214;19.354;2022-07-26T11:16:00;14.75;;;13.35;;
40284;SDS011;25997;50.214;19.354;2022-07-26T11:19:12;14.68;;;13.15;;
40284;SDS011;25997;50.214;19.354;2022-07-26T11:22:17;15.18;;;13.88;;
40284;SDS011;25997;50.214;19.354;2022-07-26T11:25:20;14.50;;;13.20;;
40284;SDS011;25997;50.214;19.354;2022-07-26T11:28:23;13.93;;;12.63;;
40284;SDS011;25997;50.214;19.354;2022-07-26T11:31:27;15.23;;;13.82;;
40284;SDS011;25997;50.214;19.354;2022-07-26T11:34:36;13.57;;;12.27;;
40284;SDS011;25997;50.214;19.354;2022-07-26T11:37:40;13.80;;;12.60;;
40284;SDS011;25997;50.214;19.354;2022-07-26T11:40:53;12.38;;;11.18;;
40284;SDS011;25997;50.214;19.354;2022-07-26T11:43:56;12.50;;;11.40;;
40284;SDS011;25997;50.214;19.354;2022-07-26T11:47:01;14.52;;;13.27;;
40284;SDS011;25997;50.214;19.354;2022-07-26T11:50:12;12.85;;;11.48;;
40284;SDS011;25997;50.214;19.354;2022-07-26T11:53:22;12.45;;;11.35;;
40284;SDS011;25997;50.214;19.354;2022-07-26T11:56:25;14.45;;;12.13;;
40284;SDS011;25997;50.214;19.354;2022-07-26T11:59:29;11.77;;;9.40;;
40284;SDS011;25997;50.214;19.354;2022-07-26T12:02:33;11.95;;;9.57;;
40284;SDS011;25997;50.214;19.354;2022-07-26T12:05:36;9.90;;;8.57;;
40284;SDS011;25997;50.214;19.354;2022-07-26T12:08:41;9.18;;;8.25;;
40284;SDS011;25997;50.214;19.354;2022-07-26T12:11:44;8.48;;;7.13;;
40284;SDS011;25997;50.214;19.354;2022-07-26T12:14:54;9.73;;;8.32;;
40284;SDS011;25997;50.214;19.354;2022-07-26T12:17:58;11.82;;;8.35;;
40284;SDS011;25997;50.214;19.354;2022-07-26T12:21:02;10.05;;;8.98;;
40284;SDS011;25997;50.214;19.354;2022-07-26T12:24:08;10.18;;;7.60;;
40284;SDS011;25997;50.214;19.354;2022-07-26T12:27:13;10.15;;;9.23;;
40284;SDS011;25997;50.214;19.354;2022-07-26T12:30:19;9.05;;;7.78;;
40284;SDS011;25997;50.214;19.354;2022-07-26T12:33:22;8.43;;;7.18;;
40284;SDS011;25997;50.214;19.354;2022-07-26T12:36:25;7.35;;;6.65;;
40284;SDS011;25997;50.214;19.354;2022-07-26T12:39:29;9.68;;;6.97;;
40284;SDS011;25997;50.214;19.354;2022-07-26T12:42:33;7.55;;;6.45;;
40284;SDS011;25997;50.214;19.354;2022-07-26T12:45:36;7.43;;;6.57;;
40284;SDS011;25997;50.214;19.354;2022-07-26T12:48:39;10.23;;;7.47;;
40284;SDS011;25997;50.214;19.354;2022-07-26T12:51:45;7.00;;;6.32;;
40284;SDS011;25997;50.214;19.354;2022-07-26T12:54:49;9.13;;;6.30;;
40284;SDS011;25997;50.214;19.354;2022-07-26T12:57:53;7.88;;;6.60;;
40284;SDS011;25997;50.214;19.354;2022-07-26T13:00:56;8.45;;;6.40;;
40284;SDS011;25997;50.214;19.354;2022-07-26T13:03:58;9.65;;;6.40;;
40284;SDS011;25997;50.214;19.354;2022-07-26T13:07:01;7.68;;;6.78;;
40284;SDS011;25997;50.214;19.354;2022-07-26T13:10:06;8.45;;;7.15;;
40284;SDS011;25997;50.214;19.354;2022-07-26T13:13:11;8.65;;;7.32;;
40284;SDS011;25997;50.214;19.354;2022-07-26T13:16:14;9.10;;;7.95;;
40284;SDS011;25997;50.214;19.354;2022-07-26T13:19:17;10.32;;;8.07;;
40284;SDS011;25997;50.214;19.354;2022-07-26T13:22:20;9.95;;;7.72;;
40284;SDS011;25997;50.214;19.354;2022-07-26T13:25:24;9.35;;;8.38;;
40284;SDS011;25997;50.214;19.354;2022-07-26T13:28:26;9.48;;;8.32;;
40284;SDS011;25997;50.214;19.354;2022-07-26T13:31:30;8.68;;;7.65;;
40284;SDS011;25997;50.214;19.354;2022-07-26T13:34:32;10.18;;;9.18;;
40284;SDS011;25997;50.214;19.354;2022-07-26T13:37:35;9.60;;;7.57;;
40284;SDS011;25997;50.214;19.354;2022-07-26T13:40:40;7.90;;;7.20;;
40284;SDS011;25997;50.214;19.354;2022-07-26T13:43:43;11.95;;;7.43;;
40284;SDS011;25997;50.214;19.354;2022-07-26T13:46:45;8.10;;;7.03;;
40284;SDS011;25997;50.214;19.354;2022-07-26T13:49:48;11.30;;;10.10;;
40284;SDS011;25997;50.214;19.354;2022-07-26T13:52:50;11.35;;;8.43;;
40284;SDS011;25997;50.214;19.354;2022-07-26T13:55:54;7.25;;;6.63;;
40284;SDS011;25997;50.214;19.354;2022-07-26T13:58:57;9.20;;;8.05;;
40284;SDS011;25997;50.214;19.354;2022-07-26T14:02:00;9.57;;;6.93;;
40284;SDS011;25997;50.214;19.354;2022-07-26T14:05:04;7.00;;;6.22;;
40284;SDS011;25997;50.214;19.354;2022-07-26T14:08:07;7.38;;;6.38;;
40284;SDS011;25997;50.214;19.354;2022-07-26T14:11:11;8.10;;;6.38;;
40284;SDS011;25997;50.214;19.354;2022-07-26T14:14:13;8.73;;;7.15;;
40284;SDS011;25997;50.214;19.354;2022-07-26T14:17:16;9.52;;;6.22;;
40284;SDS011;25997;50.214;19.354;2022-07-26T14:20:19;8.52;;;6.53;;
40284;SDS011;25997;50.214;19.354;2022-07-26T14:23:22;8.13;;;6.47;;
40284;SDS011;25997;50.214;19.354;2022-07-26T14:26:26;7.20;;;6.47;;
40284;SDS011;25997;50.214;19.354;2022-07-26T14:29:29;7.78;;;6.78;;
40284;SDS011;25997;50.214;19.354;2022-07-26T14:32:32;6.72;;;5.38;;
40284;SDS011;25997;50.214;19.354;2022-07-26T14:35:34;6.47;;;5.68;;
40284;SDS011;25997;50.214;19.354;2022-07-26T14:38:37;7.15;;;5.88;;
40284;SDS011;25997;50.214;19.354;2022-07-26T14:41:42;8.13;;;5.47;;
40284;SDS011;25997;50.214;19.354;2022-07-26T14:44:45;7.25;;;5.82;;
40284;SDS011;25997;50.214;19.354;2022-07-26T14:47:47;6.82;;;5.18;;
40284;SDS011;25997;50.214;19.354;2022-07-26T14:50:50;6.72;;;6.03;;
40284;SDS011;25997;50.214;19.354;2022-07-26T14:53:52;9.25;;;7.82;;
40284;SDS011;25997;50.214;19.354;2022-07-26T14:56:56;9.40;;;8.00;;
40284;SDS011;25997;50.214;19.354;2022-07-26T14:59:59;11.93;;;8.45;;
40284;SDS011;25997;50.214;19.354;2022-07-26T15:03:02;12.27;;;8.55;;
40284;SDS011;25997;50.214;19.354;2022-07-26T15:06:04;9.95;;;7.63;;
40284;SDS011;25997;50.214;19.354;2022-07-26T15:09:07;7.72;;;6.60;;
40284;SDS011;25997;50.214;19.354;2022-07-26T15:12:11;8.07;;;6.82;;
40284;SDS011;25997;50.214;19.354;2022-07-26T15:15:13;9.40;;;7.18;;
40284;SDS011;25997;50.214;19.354;2022-07-26T15:18:16;10.75;;;7.47;;
40284;SDS011;25997;50.214;19.354;2022-07-26T15:21:18;11.30;;;7.43;;
40284;SDS011;25997;50.214;19.354;2022-07-26T15:24:22;8.32;;;7.30;;
40284;SDS011;25997;50.214;19.354;2022-07-26T15:27:28;7.32;;;6.55;;
40284;SDS011;25997;50.214;19.354;2022-07-26T15:30:30;8.93;;;8.00;;
40284;SDS011;25997;50.214;19.354;2022-07-26T15:33:33;8.98;;;7.40;;
40284;SDS011;25997;50.214;19.354;2022-07-26T15:36:36;9.35;;;8.35;;
40284;SDS011;25997;50.214;19.354;2022-07-26T15:39:38;10.57;;;8.68;;
40284;SDS011;25997;50.214;19.354;2022-07-26T15:42:43;9.52;;;8.45;;
40284;SDS011;25997;50.214;19.354;2022-07-26T15:45:47;11.68;;;9.65;;
40284;SDS011;25997;50.214;19.354;2022-07-26T15:48:50;13.32;;;10.07;;
40284;SDS011;25997;50.214;19.354;2022-07-26T15:51:53;10.68;;;9.27;;
40284;SDS011;25997;50.214;19.354;2022-07-26T15:54:56;10.88;;;8.82;;
40284;SDS011;25997;50.214;19.354;2022-07-26T15:58:00;9.82;;;8.65;;
40284;SDS011;25997;50.214;19.354;2022-07-26T16:01:03;10.52;;;9.45;;
40284;SDS011;25997;50.214;19.354;2022-07-26T16:04:05;10.52;;;9.43;;
40284;SDS011;25997;50.214;19.354;2022-07-26T16:07:08;10.88;;;9.75;;
40284;SDS011;25997;50.214;19.354;2022-07-26T16:10:11;10.55;;;9.55;;
40284;SDS011;25997;50.214;19.354;2022-07-26T16:13:16;13.75;;;10.18;;
40284;SDS011;25997;50.214;19.354;2022-07-26T16:16:19;11.20;;;9.50;;
40284;SDS011;25997;50.214;19.354;2022-07-26T16:19:21;10.20;;;9.30;;
40284;SDS011;25997;50.214;19.354;2022-07-26T16:22:24;12.40;;;11.18;;
40284;SDS011;25997;50.214;19.354;2022-07-26T16:25:27;14.43;;;10.35;;
40284;SDS011;25997;50.214;19.354;2022-07-26T16:28:31;12.93;;;11.65;;
40284;SDS011;25997;50.214;19.354;2022-07-26T16:31:33;16.70;;;12.75;;
40284;SDS011;25997;50.214;19.354;2022-07-26T16:34:37;14.45;;;12.05;;
40284;SDS011;25997;50.214;19.354;2022-07-26T16:37:39;17.80;;;12.88;;
40284;SDS011;25997;50.214;19.354;2022-07-26T16:40:42;14.38;;;12.50;;
40284;SDS011;25997;50.214;19.354;2022-07-26T16:43:46;13.23;;;11.95;;
40284;SDS011;25997;50.214;19.354;2022-07-26T16:46:48;13.50;;;12.23;;
40284;SDS011;25997;50.214;19.354;2022-07-26T16:49:51;11.57;;;10.38;;
40284;SDS011;25997;50.214;19.354;2022-07-26T16:52:54;13.15;;;9.95;;
40284;SDS011;25997;50.214;19.354;2022-07-26T16:55:56;12.05;;;10.00;;
40284;SDS011;25997;50.214;19.354;2022-07-26T16:59:00;11.05;;;9.95;;
40284;SDS011;25997;50.214;19.354;2022-07-26T17:02:03;12.88;;;8.98;;
40284;SDS011;25997;50.214;19.354;2022-07-26T17:05:06;10.38;;;9.25;;
40284;SDS011;25997;50.214;19.354;2022-07-26T17:08:09;11.68;;;9.38;;
40284;SDS011;25997;50.214;19.354;2022-07-26T17:11:12;13.43;;;9.13;;
40284;SDS011;25997;50.214;19.354;2022-07-26T17:14:16;18.95;;;16.15;;
40284;SDS011;25997;50.214;19.354;2022-07-26T17:17:19;24.80;;;20.40;;
40284;SDS011;25997;50.214;19.354;2022-07-26T17:20:22;17.77;;;15.82;;
40284;SDS011;25997;50.214;19.354;2022-07-26T17:23:25;17.20;;;15.43;;
40284;SDS011;25997;50.214;19.354;2022-07-26T17:26:27;12.35;;;10.75;;
40284;SDS011;25997;50.214;19.354;2022-07-26T17:29:32;13.30;;;9.88;;
40284;SDS011;25997;50.214;19.354;2022-07-26T17:32:34;11.20;;;10.05;;
40284;SDS011;25997;50.214;19.354;2022-07-26T17:35:37;11.77;;;10.52;;
40284;SDS011;25997;50.214;19.354;2022-07-26T17:38:40;12.95;;;9.90;;
40284;SDS011;25997;50.214;19.354;2022-07-26T17:41:43;12.02;;;10.73;;
40284;SDS011;25997;50.214;19.354;2022-07-26T17:44:50;12.85;;;10.00;;
40284;SDS011;25997;50.214;19.354;2022-07-26T17:47:52;11.40;;;10.27;;
40284;SDS011;25997;50.214;19.354;2022-07-26T17:50:55;13.85;;;10.27;;
40284;SDS011;25997;50.214;19.354;2022-07-26T17:53:57;12.88;;;11.48;;
40284;SDS011;25997;50.214;19.354;2022-07-26T17:57:00;13.75;;;10.38;;
40284;SDS011;25997;50.214;19.354;2022-07-26T18:00:05;14.75;;;11.43;;
40284;SDS011;25997;50.214;19.354;2022-07-26T18:03:08;14.25;;;11.50;;
40284;SDS011;25997;50.214;19.354;2022-07-26T18:06:11;12.88;;;10.35;;
40284;SDS011;25997;50.214;19.354;2022-07-26T18:09:14;12.88;;;11.55;;
40284;SDS011;25997;50.214;19.354;2022-07-26T18:12:16;13.45;;;12.15;;